sensor_id;sensor_type;location;lat;lon;timestamp;temperature;humidity
19214;DHT22;9741;51.020;5.304;2023-02-15T00:01:08;1.40;58.50
19214;DHT22;9741;51.020;5.304;2023-02-15T00:03:35;1.40;58.50
19214;DHT22;9741;51.020;5.304;2023-02-15T00:06:02;1.40;58.50
19214;DHT22;9741;51.020;5.304;2023-02-15T00:08:30;1.40;58.60
19214;DHT22;9741;51.020;5.304;2023-02-15T00:11:04;1.30;58.50
19214;DHT22;9741;51.020;5.304;2023-02-15T00:13:32;1.30;58.60
19214;DHT22;9741;51.020;5.304;2023-02-15T00:16:01;1.30;58.60
19214;DHT22;9741;51.020;5.304;2023-02-15T00:18:30;1.30;58.70
19214;DHT22;9741;51.020;5.304;2023-02-15T00:20:58;1.30;58.70
19214;DHT22;9741;51.020;5.304;2023-02-15T00:23:26;1.20;58.60
19214;DHT22;9741;51.020;5.304;2023-02-15T00:26:03;1.20;58.60
19214;DHT22;9741;51.020;5.304;2023-02-15T00:28:30;1.20;58.60
19214;DHT22;9741;51.020;5.304;2023-02-15T00:31:03;1.20;58.60
19214;DHT22;9741;51.020;5.304;2023-02-15T00:33:32;1.10;58.60
19214;DHT22;9741;51.020;5.304;2023-02-15T00:36:00;1.10;58.60
19214;DHT22;9741;51.020;5.304;2023-02-15T00:38:28;1.10;58.70
19214;DHT22;9741;51.020;5.304;2023-02-15T00:40:56;1.10;58.70
19214;DHT22;9741;51.020;5.304;2023-02-15T00:43:24;1.00;58.60
19214;DHT22;9741;51.020;5.304;2023-02-15T00:45:51;1.00;58.60
19214;DHT22;9741;51.020;5.304;2023-02-15T00:48:19;1.00;58.70
19214;DHT22;9741;51.020;5.304;2023-02-15T00:50:49;1.00;58.70
19214;DHT22;9741;51.020;5.304;2023-02-15T00:53:17;1.00;58.80
19214;DHT22;9741;51.020;5.304;2023-02-15T00:55:44;0.90;58.70
19214;DHT22;9741;51.020;5.304;2023-02-15T00:58:12;0.90;58.70
19214;DHT22;9741;51.020;5.304;2023-02-15T01:00:41;0.90;58.70
19214;DHT22;9741;51.020;5.304;2023-02-15T01:03:08;0.90;58.70
19214;DHT22;9741;51.020;5.304;2023-02-15T01:05:36;0.80;58.70
19214;DHT22;9741;51.020;5.304;2023-02-15T01:08:04;0.80;58.70
19214;DHT22;9741;51.020;5.304;2023-02-15T01:10:31;0.80;58.70
19214;DHT22;9741;51.020;5.304;2023-02-15T01:12:58;0.80;58.70
19214;DHT22;9741;51.020;5.304;2023-02-15T01:15:25;0.80;58.80
19214;DHT22;9741;51.020;5.304;2023-02-15T01:17:52;0.80;58.80
19214;DHT22;9741;51.020;5.304;2023-02-15T01:20:20;0.70;58.80
19214;DHT22;9741;51.020;5.304;2023-02-15T01:22:48;0.70;58.80
19214;DHT22;9741;51.020;5.304;2023-02-15T01:25:17;0.70;58.80
19214;DHT22;9741;51.020;5.304;2023-02-15T01:27:44;0.70;58.80
19214;DHT22;9741;51.020;5.304;2023-02-15T01:30:12;0.70;58.80
19214;DHT22;9741;51.020;5.304;2023-02-15T01:32:40;0.70;58.80
19214;DHT22;9741;51.020;5.304;2023-02-15T01:35:07;0.70;58.80
19214;DHT22;9741;51.020;5.304;2023-02-15T01:37:35;0.70;58.80
19214;DHT22;9741;51.020;5.304;2023-02-15T01:40:03;0.70;58.90
19214;DHT22;9741;51.020;5.304;2023-02-15T01:42:32;0.70;58.90
19214;DHT22;9741;51.020;5.304;2023-02-15T01:45:01;0.60;58.80
19214;DHT22;9741;51.020;5.304;2023-02-15T01:47:33;0.60;58.80
19214;DHT22;9741;51.020;5.304;2023-02-15T01:50:08;0.60;58.90
19214;DHT22;9741;51.020;5.304;2023-02-15T01:52:38;0.60;58.90
19214;DHT22;9741;51.020;5.304;2023-02-15T01:55:08;0.60;58.90
19214;DHT22;9741;51.020;5.304;2023-02-15T01:57:37;0.60;58.90
19214;DHT22;9741;51.020;5.304;2023-02-15T02:00:06;0.60;59.00
19214;DHT22;9741;51.020;5.304;2023-02-15T02:02:35;0.60;59.00
19214;DHT22;9741;51.020;5.304;2023-02-15T02:05:03;0.60;58.90
19214;DHT22;9741;51.020;5.304;2023-02-15T02:07:34;0.60;59.00
19214;DHT22;9741;51.020;5.304;2023-02-15T02:10:03;0.60;58.90
19214;DHT22;9741;51.020;5.304;2023-02-15T02:12:31;0.50;58.90
19214;DHT22;9741;51.020;5.304;2023-02-15T02:15:00;0.50;58.90
19214;DHT22;9741;51.020;5.304;2023-02-15T02:17:37;0.50;58.90
19214;DHT22;9741;51.020;5.304;2023-02-15T02:20:28;0.50;59.00
19214;DHT22;9741;51.020;5.304;2023-02-15T02:23:25;0.50;59.00
19214;DHT22;9741;51.020;5.304;2023-02-15T02:26:20;0.50;59.00
19214;DHT22;9741;51.020;5.304;2023-02-15T02:29:22;0.40;58.90
19214;DHT22;9741;51.020;5.304;2023-02-15T02:32:28;0.40;59.00
19214;DHT22;9741;51.020;5.304;2023-02-15T02:35:04;0.40;59.10
19214;DHT22;9741;51.020;5.304;2023-02-15T02:37:39;0.40;59.10
19214;DHT22;9741;51.020;5.304;2023-02-15T02:40:13;0.30;59.10
19214;DHT22;9741;51.020;5.304;2023-02-15T02:42:43;0.30;59.10
19214;DHT22;9741;51.020;5.304;2023-02-15T02:45:14;0.30;59.20
19214;DHT22;9741;51.020;5.304;2023-02-15T02:47:45;0.30;59.20
19214;DHT22;9741;51.020;5.304;2023-02-15T02:50:22;0.30;59.20
19214;DHT22;9741;51.020;5.304;2023-02-15T02:52:51;0.30;59.20
19214;DHT22;9741;51.020;5.304;2023-02-15T02:55:21;0.30;59.20
19214;DHT22;9741;51.020;5.304;2023-02-15T02:57:53;0.30;59.20
19214;DHT22;9741;51.020;5.304;2023-02-15T03:00:22;0.30;59.20
19214;DHT22;9741;51.020;5.304;2023-02-15T03:02:54;0.30;59.20
19214;DHT22;9741;51.020;5.304;2023-02-15T03:05:27;0.30;59.20
19214;DHT22;9741;51.020;5.304;2023-02-15T03:07:56;0.30;59.20
19214;DHT22;9741;51.020;5.304;2023-02-15T03:10:27;0.20;59.10
19214;DHT22;9741;51.020;5.304;2023-02-15T03:12:55;0.20;59.70
19214;DHT22;9741;51.020;5.304;2023-02-15T03:15:25;0.20;59.10
19214;DHT22;9741;51.020;5.304;2023-02-15T03:18:14;0.20;59.20
19214;DHT22;9741;51.020;5.304;2023-02-15T03:20:44;0.20;59.10
19214;DHT22;9741;51.020;5.304;2023-02-15T03:23:15;0.10;59.00
19214;DHT22;9741;51.020;5.304;2023-02-15T03:25:45;0.10;59.10
19214;DHT22;9741;51.020;5.304;2023-02-15T03:28:18;0.10;59.20
19214;DHT22;9741;51.020;5.304;2023-02-15T03:30:48;0.10;59.30
19214;DHT22;9741;51.020;5.304;2023-02-15T03:33:16;0.10;59.30
19214;DHT22;9741;51.020;5.304;2023-02-15T03:35:49;0.10;59.20
19214;DHT22;9741;51.020;5.304;2023-02-15T03:38:20;0.10;59.30
19214;DHT22;9741;51.020;5.304;2023-02-15T03:40:47;0.10;59.30
19214;DHT22;9741;51.020;5.304;2023-02-15T03:43:37;0.10;59.30
19214;DHT22;9741;51.020;5.304;2023-02-15T03:46:11;0.10;59.20
19214;DHT22;9741;51.020;5.304;2023-02-15T03:48:43;0.10;59.30
19214;DHT22;9741;51.020;5.304;2023-02-15T03:51:17;0.10;59.30
19214;DHT22;9741;51.020;5.304;2023-02-15T03:53:59;0.00;59.20
19214;DHT22;9741;51.020;5.304;2023-02-15T03:56:26;0.00;59.20
19214;DHT22;9741;51.020;5.304;2023-02-15T03:58:53;0.00;59.30
19214;DHT22;9741;51.020;5.304;2023-02-15T04:01:40;0.00;59.30
19214;DHT22;9741;51.020;5.304;2023-02-15T04:04:28;0.00;59.30
19214;DHT22;9741;51.020;5.304;2023-02-15T04:06:58;0.00;59.30
19214;DHT22;9741;51.020;5.304;2023-02-15T04:09:25;0.00;59.40
19214;DHT22;9741;51.020;5.304;2023-02-15T04:12:09;0.00;59.40
19214;DHT22;9741;51.020;5.304;2023-02-15T04:14:36;0.00;59.30
19214;DHT22;9741;51.020;5.304;2023-02-15T04:17:21;0.00;59.30
19214;DHT22;9741;51.020;5.304;2023-02-15T04:19:48;-0.10;59.20
19214;DHT22;9741;51.020;5.304;2023-02-15T04:22:34;-0.10;59.20
19214;DHT22;9741;51.020;5.304;2023-02-15T04:25:19;-0.10;59.20
19214;DHT22;9741;51.020;5.304;2023-02-15T04:27:48;-0.20;59.10
19214;DHT22;9741;51.020;5.304;2023-02-15T04:30:16;-0.20;59.20
19214;DHT22;9741;51.020;5.304;2023-02-15T04:32:44;-0.20;59.30
19214;DHT22;9741;51.020;5.304;2023-02-15T04:35:11;-0.20;59.40
19214;DHT22;9741;51.020;5.304;2023-02-15T04:37:40;-0.20;59.40
19214;DHT22;9741;51.020;5.304;2023-02-15T04:40:09;-0.20;59.30
19214;DHT22;9741;51.020;5.304;2023-02-15T04:42:36;-0.20;59.40
19214;DHT22;9741;51.020;5.304;2023-02-15T04:45:03;-0.20;59.40
19214;DHT22;9741;51.020;5.304;2023-02-15T04:47:31;-0.20;59.40
19214;DHT22;9741;51.020;5.304;2023-02-15T04:49:58;-0.20;59.40
19214;DHT22;9741;51.020;5.304;2023-02-15T04:52:25;-0.20;59.40
19214;DHT22;9741;51.020;5.304;2023-02-15T04:54:53;-0.20;59.40
19214;DHT22;9741;51.020;5.304;2023-02-15T04:57:20;-0.10;59.60
19214;DHT22;9741;51.020;5.304;2023-02-15T04:59:47;-0.10;59.50
19214;DHT22;9741;51.020;5.304;2023-02-15T05:02:14;-0.20;59.40
19214;DHT22;9741;51.020;5.304;2023-02-15T05:04:41;-0.20;59.40
19214;DHT22;9741;51.020;5.304;2023-02-15T05:07:08;-0.20;59.40
19214;DHT22;9741;51.020;5.304;2023-02-15T05:09:35;-0.20;59.40
19214;DHT22;9741;51.020;5.304;2023-02-15T05:12:04;-0.20;59.40
19214;DHT22;9741;51.020;5.304;2023-02-15T05:14:31;-0.20;59.60
19214;DHT22;9741;51.020;5.304;2023-02-15T05:16:58;-0.20;59.60
19214;DHT22;9741;51.020;5.304;2023-02-15T05:19:27;-0.20;59.60
19214;DHT22;9741;51.020;5.304;2023-02-15T05:21:54;-0.20;59.50
19214;DHT22;9741;51.020;5.304;2023-02-15T05:24:21;-0.30;59.40
19214;DHT22;9741;51.020;5.304;2023-02-15T05:27:08;-0.30;59.40
19214;DHT22;9741;51.020;5.304;2023-02-15T05:29:54;-0.30;59.40
19214;DHT22;9741;51.020;5.304;2023-02-15T05:32:21;-0.30;59.40
19214;DHT22;9741;51.020;5.304;2023-02-15T05:34:48;-0.30;59.50
19214;DHT22;9741;51.020;5.304;2023-02-15T05:37:15;-0.30;59.50
19214;DHT22;9741;51.020;5.304;2023-02-15T05:39:42;-0.30;59.50
19214;DHT22;9741;51.020;5.304;2023-02-15T05:42:10;-0.30;59.50
19214;DHT22;9741;51.020;5.304;2023-02-15T05:44:37;-0.30;59.50
19214;DHT22;9741;51.020;5.304;2023-02-15T05:47:04;-0.30;59.50
19214;DHT22;9741;51.020;5.304;2023-02-15T05:49:33;-0.30;59.50
19214;DHT22;9741;51.020;5.304;2023-02-15T05:52:00;-0.40;59.40
19214;DHT22;9741;51.020;5.304;2023-02-15T05:54:27;-0.40;59.40
19214;DHT22;9741;51.020;5.304;2023-02-15T05:56:55;-0.30;59.50
19214;DHT22;9741;51.020;5.304;2023-02-15T05:59:24;-0.40;59.40
19214;DHT22;9741;51.020;5.304;2023-02-15T06:01:51;-0.40;59.40
19214;DHT22;9741;51.020;5.304;2023-02-15T06:04:18;-0.40;59.40
19214;DHT22;9741;51.020;5.304;2023-02-15T06:06:45;-0.40;59.40
19214;DHT22;9741;51.020;5.304;2023-02-15T06:09:12;-0.40;59.60
19214;DHT22;9741;51.020;5.304;2023-02-15T06:11:40;-0.40;59.70
19214;DHT22;9741;51.020;5.304;2023-02-15T06:14:07;-0.30;59.70
19214;DHT22;9741;51.020;5.304;2023-02-15T06:16:35;-0.30;59.60
19214;DHT22;9741;51.020;5.304;2023-02-15T06:19:02;-0.30;59.60
19214;DHT22;9741;51.020;5.304;2023-02-15T06:21:30;-0.30;59.60
19214;DHT22;9741;51.020;5.304;2023-02-15T06:23:57;-0.30;59.70
19214;DHT22;9741;51.020;5.304;2023-02-15T06:26:24;-0.30;59.60
19214;DHT22;9741;51.020;5.304;2023-02-15T06:28:51;-0.30;59.50
19214;DHT22;9741;51.020;5.304;2023-02-15T06:31:18;-0.30;59.60
19214;DHT22;9741;51.020;5.304;2023-02-15T06:33:47;-0.30;59.60
19214;DHT22;9741;51.020;5.304;2023-02-15T06:36:14;-0.30;59.60
19214;DHT22;9741;51.020;5.304;2023-02-15T06:38:41;-0.30;59.70
19214;DHT22;9741;51.020;5.304;2023-02-15T06:41:08;-0.30;59.80
19214;DHT22;9741;51.020;5.304;2023-02-15T06:43:35;-0.20;60.00
19214;DHT22;9741;51.020;5.304;2023-02-15T06:46:02;-0.20;59.90
19214;DHT22;9741;51.020;5.304;2023-02-15T06:48:29;-0.20;59.80
19214;DHT22;9741;51.020;5.304;2023-02-15T06:50:57;-0.30;59.70
19214;DHT22;9741;51.020;5.304;2023-02-15T06:53:24;-0.20;59.70
19214;DHT22;9741;51.020;5.304;2023-02-15T06:55:51;-0.20;59.70
19214;DHT22;9741;51.020;5.304;2023-02-15T06:58:18;-0.20;59.70
19214;DHT22;9741;51.020;5.304;2023-02-15T07:00:45;-0.20;59.70
19214;DHT22;9741;51.020;5.304;2023-02-15T07:03:13;-0.20;59.90
19214;DHT22;9741;51.020;5.304;2023-02-15T07:05:41;-0.20;59.90
19214;DHT22;9741;51.020;5.304;2023-02-15T07:08:10;-0.20;59.90
19214;DHT22;9741;51.020;5.304;2023-02-15T07:10:37;-0.10;59.90
19214;DHT22;9741;51.020;5.304;2023-02-15T07:13:04;-0.10;60.00
19214;DHT22;9741;51.020;5.304;2023-02-15T07:15:30;-0.10;60.00
19214;DHT22;9741;51.020;5.304;2023-02-15T07:17:57;0.00;60.10
19214;DHT22;9741;51.020;5.304;2023-02-15T07:20:25;0.00;60.10
19214;DHT22;9741;51.020;5.304;2023-02-15T07:22:52;0.00;60.00
19214;DHT22;9741;51.020;5.304;2023-02-15T07:25:20;0.10;60.10
19214;DHT22;9741;51.020;5.304;2023-02-15T07:27:47;0.20;60.10
19214;DHT22;9741;51.020;5.304;2023-02-15T07:30:16;0.20;60.10
19214;DHT22;9741;51.020;5.304;2023-02-15T07:32:43;0.30;60.20
19214;DHT22;9741;51.020;5.304;2023-02-15T07:35:27;0.30;60.20
19214;DHT22;9741;51.020;5.304;2023-02-15T07:37:54;0.40;60.20
19214;DHT22;9741;51.020;5.304;2023-02-15T07:40:23;0.50;60.20
19214;DHT22;9741;51.020;5.304;2023-02-15T07:42:50;0.60;60.20
19214;DHT22;9741;51.020;5.304;2023-02-15T07:45:20;0.70;60.30
19214;DHT22;9741;51.020;5.304;2023-02-15T07:47:47;0.80;60.40
19214;DHT22;9741;51.020;5.304;2023-02-15T07:50:14;0.90;60.50
19214;DHT22;9741;51.020;5.304;2023-02-15T07:52:42;1.00;60.50
19214;DHT22;9741;51.020;5.304;2023-02-15T07:55:09;1.00;60.40
19214;DHT22;9741;51.020;5.304;2023-02-15T07:57:43;1.10;60.50
19214;DHT22;9741;51.020;5.304;2023-02-15T08:00:12;1.20;60.50
19214;DHT22;9741;51.020;5.304;2023-02-15T08:02:39;1.30;60.50
19214;DHT22;9741;51.020;5.304;2023-02-15T08:05:06;1.40;60.50
19214;DHT22;9741;51.020;5.304;2023-02-15T08:07:34;1.40;60.50
19214;DHT22;9741;51.020;5.304;2023-02-15T08:10:00;1.60;60.70
19214;DHT22;9741;51.020;5.304;2023-02-15T08:12:27;1.70;60.70
19214;DHT22;9741;51.020;5.304;2023-02-15T08:14:56;1.80;60.80
19214;DHT22;9741;51.020;5.304;2023-02-15T08:17:23;1.90;60.80
19214;DHT22;9741;51.020;5.304;2023-02-15T08:19:50;2.10;60.80
19214;DHT22;9741;51.020;5.304;2023-02-15T08:22:17;2.20;60.90
19214;DHT22;9741;51.020;5.304;2023-02-15T08:24:44;2.30;60.90
19214;DHT22;9741;51.020;5.304;2023-02-15T08:27:11;2.40;60.80
19214;DHT22;9741;51.020;5.304;2023-02-15T08:29:38;2.60;60.90
19214;DHT22;9741;51.020;5.304;2023-02-15T08:32:10;2.70;60.90
19214;DHT22;9741;51.020;5.304;2023-02-15T08:34:40;2.80;60.90
19214;DHT22;9741;51.020;5.304;2023-02-15T08:37:07;3.00;61.10
19214;DHT22;9741;51.020;5.304;2023-02-15T08:39:35;3.10;61.10
19214;DHT22;9741;51.020;5.304;2023-02-15T08:42:02;3.20;61.10
19214;DHT22;9741;51.020;5.304;2023-02-15T08:44:29;3.30;61.20
19214;DHT22;9741;51.020;5.304;2023-02-15T08:46:56;3.50;61.20
19214;DHT22;9741;51.020;5.304;2023-02-15T08:49:29;3.60;61.80
19214;DHT22;9741;51.020;5.304;2023-02-15T08:51:56;3.80;61.40
19214;DHT22;9741;51.020;5.304;2023-02-15T08:54:23;3.90;61.40
19214;DHT22;9741;51.020;5.304;2023-02-15T08:56:50;4.10;61.50
19214;DHT22;9741;51.020;5.304;2023-02-15T08:59:19;4.20;61.60
19214;DHT22;9741;51.020;5.304;2023-02-15T09:01:47;4.30;61.60
19214;DHT22;9741;51.020;5.304;2023-02-15T09:04:15;4.50;61.80
19214;DHT22;9741;51.020;5.304;2023-02-15T09:06:44;4.60;61.80
19214;DHT22;9741;51.020;5.304;2023-02-15T09:09:12;4.80;61.90
19214;DHT22;9741;51.020;5.304;2023-02-15T09:11:42;4.90;62.00
19214;DHT22;9741;51.020;5.304;2023-02-15T09:14:11;5.00;62.00
19214;DHT22;9741;51.020;5.304;2023-02-15T09:16:39;5.20;62.10
19214;DHT22;9741;51.020;5.304;2023-02-15T09:19:06;5.30;62.20
19214;DHT22;9741;51.020;5.304;2023-02-15T09:21:36;5.50;62.30
19214;DHT22;9741;51.020;5.304;2023-02-15T09:24:07;5.60;62.30
19214;DHT22;9741;51.020;5.304;2023-02-15T09:26:36;5.80;62.40
19214;DHT22;9741;51.020;5.304;2023-02-15T09:29:03;5.90;62.40
19214;DHT22;9741;51.020;5.304;2023-02-15T09:31:32;6.00;62.50
19214;DHT22;9741;51.020;5.304;2023-02-15T09:34:01;6.10;62.40
19214;DHT22;9741;51.020;5.304;2023-02-15T09:36:31;6.20;62.50
19214;DHT22;9741;51.020;5.304;2023-02-15T09:39:03;6.30;62.50
19214;DHT22;9741;51.020;5.304;2023-02-15T09:42:04;6.40;62.50
19214;DHT22;9741;51.020;5.304;2023-02-15T09:50:42;6.90;62.70
19214;DHT22;9741;51.020;5.304;2023-02-15T09:53:27;7.00;62.70
19214;DHT22;9741;51.020;5.304;2023-02-15T09:56:00;7.10;62.80
19214;DHT22;9741;51.020;5.304;2023-02-15T09:58:38;7.30;62.80
19214;DHT22;9741;51.020;5.304;2023-02-15T10:01:15;7.40;62.80
19214;DHT22;9741;51.020;5.304;2023-02-15T10:03:57;7.50;62.70
19214;DHT22;9741;51.020;5.304;2023-02-15T10:06:35;7.60;62.70
19214;DHT22;9741;51.020;5.304;2023-02-15T10:09:27;7.80;62.70
19214;DHT22;9741;51.020;5.304;2023-02-15T10:12:15;7.90;62.60
19214;DHT22;9741;51.020;5.304;2023-02-15T10:15:01;8.10;62.50
19214;DHT22;9741;51.020;5.304;2023-02-15T10:17:43;8.20;62.40
19214;DHT22;9741;51.020;5.304;2023-02-15T10:20:20;8.30;62.20
19214;DHT22;9741;51.020;5.304;2023-02-15T10:23:17;8.40;62.00
19214;DHT22;9741;51.020;5.304;2023-02-15T10:25:53;8.50;61.90
19214;DHT22;9741;51.020;5.304;2023-02-15T10:28:26;8.70;61.80
19214;DHT22;9741;51.020;5.304;2023-02-15T10:31:07;8.80;61.60
19214;DHT22;9741;51.020;5.304;2023-02-15T10:33:39;8.90;61.40
19214;DHT22;9741;51.020;5.304;2023-02-15T10:36:16;9.00;61.30
19214;DHT22;9741;51.020;5.304;2023-02-15T10:38:51;9.10;61.20
19214;DHT22;9741;51.020;5.304;2023-02-15T10:41:28;9.30;61.00
19214;DHT22;9741;51.020;5.304;2023-02-15T10:44:19;9.40;60.70
19214;DHT22;9741;51.020;5.304;2023-02-15T10:47:08;9.50;60.50
19214;DHT22;9741;51.020;5.304;2023-02-15T10:49:52;9.70;60.40
19214;DHT22;9741;51.020;5.304;2023-02-15T10:52:28;9.80;60.20
19214;DHT22;9741;51.020;5.304;2023-02-15T10:55:06;10.00;58.90
19214;DHT22;9741;51.020;5.304;2023-02-15T10:57:45;10.10;58.60
19214;DHT22;9741;51.020;5.304;2023-02-15T11:00:16;10.30;58.40
19214;DHT22;9741;51.020;5.304;2023-02-15T11:03:02;10.50;58.10
19214;DHT22;9741;51.020;5.304;2023-02-15T11:05:38;10.60;57.70
19214;DHT22;9741;51.020;5.304;2023-02-15T11:08:10;10.80;57.40
19214;DHT22;9741;51.020;5.304;2023-02-15T11:10:41;10.90;57.10
19214;DHT22;9741;51.020;5.304;2023-02-15T11:13:13;11.10;56.90
19214;DHT22;9741;51.020;5.304;2023-02-15T11:15:44;11.20;56.60
19214;DHT22;9741;51.020;5.304;2023-02-15T11:18:15;11.30;56.30
19214;DHT22;9741;51.020;5.304;2023-02-15T11:20:52;11.40;56.10
19214;DHT22;9741;51.020;5.304;2023-02-15T11:23:20;11.60;55.90
19214;DHT22;9741;51.020;5.304;2023-02-15T11:25:56;11.70;55.60
19214;DHT22;9741;51.020;5.304;2023-02-15T11:28:27;11.70;55.20
19214;DHT22;9741;51.020;5.304;2023-02-15T11:30:57;11.80;55.00
19214;DHT22;9741;51.020;5.304;2023-02-15T11:33:29;11.80;54.70
19214;DHT22;9741;51.020;5.304;2023-02-15T11:36:00;11.90;54.70
19214;DHT22;9741;51.020;5.304;2023-02-15T11:38:32;12.00;54.60
19214;DHT22;9741;51.020;5.304;2023-02-15T11:41:02;12.00;54.30
19214;DHT22;9741;51.020;5.304;2023-02-15T11:43:35;12.10;54.20
19214;DHT22;9741;51.020;5.304;2023-02-15T11:46:03;12.20;53.90
19214;DHT22;9741;51.020;5.304;2023-02-15T11:48:32;12.20;53.80
19214;DHT22;9741;51.020;5.304;2023-02-15T11:51:00;12.30;53.60
19214;DHT22;9741;51.020;5.304;2023-02-15T11:53:32;12.40;53.50
19214;DHT22;9741;51.020;5.304;2023-02-15T11:56:00;12.40;53.40
19214;DHT22;9741;51.020;5.304;2023-02-15T11:58:33;12.50;53.20
19214;DHT22;9741;51.020;5.304;2023-02-15T12:01:09;12.50;52.90
19214;DHT22;9741;51.020;5.304;2023-02-15T12:03:45;12.60;52.80
19214;DHT22;9741;51.020;5.304;2023-02-15T12:06:18;12.60;52.70
19214;DHT22;9741;51.020;5.304;2023-02-15T12:08:54;12.70;52.70
19214;DHT22;9741;51.020;5.304;2023-02-15T12:11:27;12.70;52.50
19214;DHT22;9741;51.020;5.304;2023-02-15T12:13:57;12.80;52.40
19214;DHT22;9741;51.020;5.304;2023-02-15T12:16:25;12.90;52.30
19214;DHT22;9741;51.020;5.304;2023-02-15T12:18:56;12.90;52.10
19214;DHT22;9741;51.020;5.304;2023-02-15T12:21:27;13.00;51.90
19214;DHT22;9741;51.020;5.304;2023-02-15T12:23:57;13.00;51.70
19214;DHT22;9741;51.020;5.304;2023-02-15T12:26:26;13.10;51.40
19214;DHT22;9741;51.020;5.304;2023-02-15T12:28:56;13.20;51.30
19214;DHT22;9741;51.020;5.304;2023-02-15T12:31:30;13.30;51.10
19214;DHT22;9741;51.020;5.304;2023-02-15T12:34:02;13.40;51.00
19214;DHT22;9741;51.020;5.304;2023-02-15T12:36:39;13.40;50.80
19214;DHT22;9741;51.020;5.304;2023-02-15T12:39:21;13.50;50.60
19214;DHT22;9741;51.020;5.304;2023-02-15T12:42:03;13.60;50.30
19214;DHT22;9741;51.020;5.304;2023-02-15T12:44:32;13.70;50.20
19214;DHT22;9741;51.020;5.304;2023-02-15T12:47:02;13.80;50.00
19214;DHT22;9741;51.020;5.304;2023-02-15T12:49:31;13.90;49.80
19214;DHT22;9741;51.020;5.304;2023-02-15T12:52:01;14.00;49.70
19214;DHT22;9741;51.020;5.304;2023-02-15T12:54:33;14.00;49.50
19214;DHT22;9741;51.020;5.304;2023-02-15T13:00:03;14.10;49.10
19214;DHT22;9741;51.020;5.304;2023-02-15T13:02:40;14.10;49.10
19214;DHT22;9741;51.020;5.304;2023-02-15T13:05:19;14.10;49.10
19214;DHT22;9741;51.020;5.304;2023-02-15T13:07:50;14.10;49.10
19214;DHT22;9741;51.020;5.304;2023-02-15T13:10:27;14.00;49.00
19214;DHT22;9741;51.020;5.304;2023-02-15T13:12:55;14.10;48.90
19214;DHT22;9741;51.020;5.304;2023-02-15T13:15:26;14.10;48.90
19214;DHT22;9741;51.020;5.304;2023-02-15T13:17:55;14.20;48.80
19214;DHT22;9741;51.020;5.304;2023-02-15T13:20:24;14.30;48.70
19214;DHT22;9741;51.020;5.304;2023-02-15T13:22:56;14.30;49.10
19214;DHT22;9741;51.020;5.304;2023-02-15T13:25:26;14.40;48.50
19214;DHT22;9741;51.020;5.304;2023-02-15T13:27:57;14.50;48.40
19214;DHT22;9741;51.020;5.304;2023-02-15T13:30:28;14.60;48.40
19214;DHT22;9741;51.020;5.304;2023-02-15T13:33:02;14.60;48.30
19214;DHT22;9741;51.020;5.304;2023-02-15T13:35:37;14.60;48.10
19214;DHT22;9741;51.020;5.304;2023-02-15T13:38:16;14.60;47.90
19214;DHT22;9741;51.020;5.304;2023-02-15T13:40:48;14.50;47.70
19214;DHT22;9741;51.020;5.304;2023-02-15T13:43:27;14.50;47.70
19214;DHT22;9741;51.020;5.304;2023-02-15T13:46:10;14.40;47.60
19214;DHT22;9741;51.020;5.304;2023-02-15T13:48:47;14.40;47.50
19214;DHT22;9741;51.020;5.304;2023-02-15T13:51:24;14.40;47.50
19214;DHT22;9741;51.020;5.304;2023-02-15T13:54:13;14.40;47.50
19214;DHT22;9741;51.020;5.304;2023-02-15T13:56:54;14.40;47.50
19214;DHT22;9741;51.020;5.304;2023-02-15T13:59:44;14.40;47.50
19214;DHT22;9741;51.020;5.304;2023-02-15T14:02:38;14.40;47.50
19214;DHT22;9741;51.020;5.304;2023-02-15T14:05:28;14.40;47.50
19214;DHT22;9741;51.020;5.304;2023-02-15T14:08:09;14.30;47.40
19214;DHT22;9741;51.020;5.304;2023-02-15T14:10:44;14.30;47.40
19214;DHT22;9741;51.020;5.304;2023-02-15T14:13:34;14.30;47.50
19214;DHT22;9741;51.020;5.304;2023-02-15T14:16:10;14.30;48.10
19214;DHT22;9741;51.020;5.304;2023-02-15T14:18:42;14.20;47.50
19214;DHT22;9741;51.020;5.304;2023-02-15T14:21:17;14.30;47.50
19214;DHT22;9741;51.020;5.304;2023-02-15T14:23:59;14.20;47.40
19214;DHT22;9741;51.020;5.304;2023-02-15T14:26:35;14.20;47.30
19214;DHT22;9741;51.020;5.304;2023-02-15T14:29:15;14.30;47.30
19214;DHT22;9741;51.020;5.304;2023-02-15T14:31:45;14.30;47.30
19214;DHT22;9741;51.020;5.304;2023-02-15T14:34:19;14.30;47.20
19214;DHT22;9741;51.020;5.304;2023-02-15T14:36:49;14.30;47.10
19214;DHT22;9741;51.020;5.304;2023-02-15T14:39:26;14.30;47.10
19214;DHT22;9741;51.020;5.304;2023-02-15T14:42:15;14.30;47.10
19214;DHT22;9741;51.020;5.304;2023-02-15T14:44:49;14.30;47.20
19214;DHT22;9741;51.020;5.304;2023-02-15T14:47:22;14.30;47.20
19214;DHT22;9741;51.020;5.304;2023-02-15T14:49:49;14.30;47.20
19214;DHT22;9741;51.020;5.304;2023-02-15T14:52:16;14.30;47.30
19214;DHT22;9741;51.020;5.304;2023-02-15T14:54:58;14.30;47.30
19214;DHT22;9741;51.020;5.304;2023-02-15T14:57:27;14.20;47.20
19214;DHT22;9741;51.020;5.304;2023-02-15T14:59:57;14.10;47.20
19214;DHT22;9741;51.020;5.304;2023-02-15T15:02:28;14.10;47.30
19214;DHT22;9741;51.020;5.304;2023-02-15T15:05:07;14.00;47.40
19214;DHT22;9741;51.020;5.304;2023-02-15T15:07:38;13.90;47.40
19214;DHT22;9741;51.020;5.304;2023-02-15T15:10:41;13.90;47.60
19214;DHT22;9741;51.020;5.304;2023-02-15T15:13:37;13.80;47.60
19214;DHT22;9741;51.020;5.304;2023-02-15T15:16:24;13.80;47.70
19214;DHT22;9741;51.020;5.304;2023-02-15T15:18:51;13.70;47.80
19214;DHT22;9741;51.020;5.304;2023-02-15T15:21:52;13.60;47.80
19214;DHT22;9741;51.020;5.304;2023-02-15T15:24:48;13.60;47.90
19214;DHT22;9741;51.020;5.304;2023-02-15T15:27:40;13.50;48.00
19214;DHT22;9741;51.020;5.304;2023-02-15T15:33:46;13.30;48.20
19214;DHT22;9741;51.020;5.304;2023-02-15T15:36:58;13.30;48.30
19214;DHT22;9741;51.020;5.304;2023-02-15T15:42:55;13.10;48.40
19214;DHT22;9741;51.020;5.304;2023-02-15T15:45:47;13.00;48.50
19214;DHT22;9741;51.020;5.304;2023-02-15T15:48:28;13.00;48.70
19214;DHT22;9741;51.020;5.304;2023-02-15T15:50:58;12.90;48.70
19214;DHT22;9741;51.020;5.304;2023-02-15T15:53:28;12.80;48.80
19214;DHT22;9741;51.020;5.304;2023-02-15T15:55:59;12.80;48.90
19214;DHT22;9741;51.020;5.304;2023-02-15T15:58:29;12.80;49.00
19214;DHT22;9741;51.020;5.304;2023-02-15T16:01:00;12.70;49.00
19214;DHT22;9741;51.020;5.304;2023-02-15T16:03:29;12.60;49.00
19214;DHT22;9741;51.020;5.304;2023-02-15T16:05:56;12.60;49.20
19214;DHT22;9741;51.020;5.304;2023-02-15T16:08:36;12.50;49.10
19214;DHT22;9741;51.020;5.304;2023-02-15T16:11:12;12.40;49.20
19214;DHT22;9741;51.020;5.304;2023-02-15T16:13:42;12.40;49.30
19214;DHT22;9741;51.020;5.304;2023-02-15T16:16:11;12.30;49.30
19214;DHT22;9741;51.020;5.304;2023-02-15T16:18:39;12.20;49.40
19214;DHT22;9741;51.020;5.304;2023-02-15T16:21:16;12.10;49.50
19214;DHT22;9741;51.020;5.304;2023-02-15T16:23:57;12.10;49.60
19214;DHT22;9741;51.020;5.304;2023-02-15T16:29:30;11.80;49.60
19214;DHT22;9741;51.020;5.304;2023-02-15T16:32:02;11.70;49.70
19214;DHT22;9741;51.020;5.304;2023-02-15T16:34:29;11.60;49.80
19214;DHT22;9741;51.020;5.304;2023-02-15T16:37:17;11.50;49.90
19214;DHT22;9741;51.020;5.304;2023-02-15T16:39:45;11.40;50.00
19214;DHT22;9741;51.020;5.304;2023-02-15T16:42:14;11.30;50.00
19214;DHT22;9741;51.020;5.304;2023-02-15T16:44:43;11.20;50.10